sensor_id;sensor_type;location;lat;lon;timestamp;temperature;humidity
42755;DHT22;28407;51.830;5.684;2024-01-15T00:01:48;4.00;90.00
42755;DHT22;28407;51.830;5.684;2024-01-15T00:03:49;4.00;90.00
42755;DHT22;28407;51.830;5.684;2024-01-15T00:05:49;4.00;90.00
42755;DHT22;28407;51.830;5.684;2024-01-15T00:07:53;3.90;90.00
42755;DHT22;28407;51.830;5.684;2024-01-15T00:09:53;4.00;90.00
42755;DHT22;28407;51.830;5.684;2024-01-15T00:11:57;3.90;90.00
42755;DHT22;28407;51.830;5.684;2024-01-15T00:13:57;3.90;90.00
42755;DHT22;28407;51.830;5.684;2024-01-15T00:15:58;3.90;90.00
42755;DHT22;28407;51.830;5.684;2024-01-15T00:17:59;3.90;90.00
42755;DHT22;28407;51.830;5.684;2024-01-15T00:20:00;3.90;90.10
42755;DHT22;28407;51.830;5.684;2024-01-15T00:22:01;3.80;90.10
42755;DHT22;28407;51.830;5.684;2024-01-15T00:24:04;3.80;90.10
42755;DHT22;28407;51.830;5.684;2024-01-15T00:26:05;3.80;90.10
42755;DHT22;28407;51.830;5.684;2024-01-15T00:28:06;3.80;90.10
42755;DHT22;28407;51.830;5.684;2024-01-15T00:30:09;3.80;90.10
42755;DHT22;28407;51.830;5.684;2024-01-15T00:32:10;3.80;90.10
42755;DHT22;28407;51.830;5.684;2024-01-15T00:34:11;3.80;90.10
42755;DHT22;28407;51.830;5.684;2024-01-15T00:36:11;3.80;90.10
42755;DHT22;28407;51.830;5.684;2024-01-15T00:38:17;3.80;90.10
42755;DHT22;28407;51.830;5.684;2024-01-15T00:40:17;3.70;90.10
42755;DHT22;28407;51.830;5.684;2024-01-15T00:42:18;3.80;90.10
42755;DHT22;28407;51.830;5.684;2024-01-15T00:44:19;3.80;90.10
42755;DHT22;28407;51.830;5.684;2024-01-15T00:46:19;3.80;90.10
42755;DHT22;28407;51.830;5.684;2024-01-15T00:48:20;3.70;90.10
42755;DHT22;28407;51.830;5.684;2024-01-15T00:50:21;3.70;90.10
42755;DHT22;28407;51.830;5.684;2024-01-15T00:52:21;3.80;90.10
42755;DHT22;28407;51.830;5.684;2024-01-15T00:54:26;3.70;90.10
42755;DHT22;28407;51.830;5.684;2024-01-15T00:56:26;3.80;90.10
42755;DHT22;28407;51.830;5.684;2024-01-15T00:58:29;3.70;90.10
42755;DHT22;28407;51.830;5.684;2024-01-15T01:00:30;3.70;90.10
42755;DHT22;28407;51.830;5.684;2024-01-15T01:02:31;3.70;90.10
42755;DHT22;28407;51.830;5.684;2024-01-15T01:04:32;3.70;90.10
42755;DHT22;28407;51.830;5.684;2024-01-15T01:06:32;3.70;90.10
42755;DHT22;28407;51.830;5.684;2024-01-15T01:08:34;3.70;90.10
42755;DHT22;28407;51.830;5.684;2024-01-15T01:10:35;3.70;90.10
42755;DHT22;28407;51.830;5.684;2024-01-15T01:12:35;3.70;90.10
42755;DHT22;28407;51.830;5.684;2024-01-15T01:14:36;3.70;90.10
42755;DHT22;28407;51.830;5.684;2024-01-15T01:16:37;3.70;90.10
42755;DHT22;28407;51.830;5.684;2024-01-15T01:18:39;3.70;90.10
42755;DHT22;28407;51.830;5.684;2024-01-15T01:20:39;3.70;90.10
42755;DHT22;28407;51.830;5.684;2024-01-15T01:22:40;3.70;90.00
42755;DHT22;28407;51.830;5.684;2024-01-15T01:24:41;3.70;90.10
42755;DHT22;28407;51.830;5.684;2024-01-15T01:26:45;3.70;90.10
42755;DHT22;28407;51.830;5.684;2024-01-15T01:28:47;3.70;90.10
42755;DHT22;28407;51.830;5.684;2024-01-15T01:30:47;3.70;90.10
42755;DHT22;28407;51.830;5.684;2024-01-15T01:32:48;3.70;90.10
42755;DHT22;28407;51.830;5.684;2024-01-15T01:34:49;3.60;90.10
42755;DHT22;28407;51.830;5.684;2024-01-15T01:36:55;3.60;90.10
42755;DHT22;28407;51.830;5.684;2024-01-15T01:38:55;3.60;90.10
42755;DHT22;28407;51.830;5.684;2024-01-15T01:40:56;3.60;90.00
42755;DHT22;28407;51.830;5.684;2024-01-15T01:42:57;3.60;90.10
42755;DHT22;28407;51.830;5.684;2024-01-15T01:44:57;3.60;90.10
42755;DHT22;28407;51.830;5.684;2024-01-15T01:46:58;3.60;90.10
42755;DHT22;28407;51.830;5.684;2024-01-15T01:49:03;3.60;90.10
42755;DHT22;28407;51.830;5.684;2024-01-15T01:51:05;3.60;90.00
42755;DHT22;28407;51.830;5.684;2024-01-15T01:53:06;3.60;90.10
42755;DHT22;28407;51.830;5.684;2024-01-15T01:55:07;3.60;90.10
42755;DHT22;28407;51.830;5.684;2024-01-15T01:57:09;3.60;90.10
42755;DHT22;28407;51.830;5.684;2024-01-15T01:59:11;3.60;90.00
42755;DHT22;28407;51.830;5.684;2024-01-15T02:01:11;3.60;90.00
42755;DHT22;28407;51.830;5.684;2024-01-15T02:03:13;3.60;90.10
42755;DHT22;28407;51.830;5.684;2024-01-15T02:05:14;3.60;90.10
42755;DHT22;28407;51.830;5.684;2024-01-15T02:07:18;3.60;90.10
42755;DHT22;28407;51.830;5.684;2024-01-15T02:09:22;3.50;90.00
42755;DHT22;28407;51.830;5.684;2024-01-15T02:11:22;3.50;90.00
42755;DHT22;28407;51.830;5.684;2024-01-15T02:13:23;3.50;90.10
42755;DHT22;28407;51.830;5.684;2024-01-15T02:15:24;3.50;90.10
42755;DHT22;28407;51.830;5.684;2024-01-15T02:17:27;3.50;90.10
42755;DHT22;28407;51.830;5.684;2024-01-15T02:19:28;3.50;90.10
42755;DHT22;28407;51.830;5.684;2024-01-15T02:21:29;3.50;90.10
42755;DHT22;28407;51.830;5.684;2024-01-15T02:23:30;3.50;90.10
42755;DHT22;28407;51.830;5.684;2024-01-15T02:25:30;3.50;90.10
42755;DHT22;28407;51.830;5.684;2024-01-15T02:27:31;3.50;90.10
42755;DHT22;28407;51.830;5.684;2024-01-15T02:29:32;3.50;90.10
42755;DHT22;28407;51.830;5.684;2024-01-15T02:31:33;3.40;90.00
42755;DHT22;28407;51.830;5.684;2024-01-15T02:33:37;3.40;90.10
42755;DHT22;28407;51.830;5.684;2024-01-15T02:35:40;3.50;90.00
42755;DHT22;28407;51.830;5.684;2024-01-15T02:37:41;3.40;90.00
42755;DHT22;28407;51.830;5.684;2024-01-15T02:39:41;3.40;90.00
42755;DHT22;28407;51.830;5.684;2024-01-15T02:41:42;3.40;90.00
42755;DHT22;28407;51.830;5.684;2024-01-15T02:43:43;3.40;90.10
42755;DHT22;28407;51.830;5.684;2024-01-15T02:45:46;3.50;90.10
42755;DHT22;28407;51.830;5.684;2024-01-15T02:47:47;3.40;90.00
42755;DHT22;28407;51.830;5.684;2024-01-15T02:49:48;3.40;90.00
42755;DHT22;28407;51.830;5.684;2024-01-15T02:51:48;3.40;90.00
42755;DHT22;28407;51.830;5.684;2024-01-15T02:53:49;3.40;90.00
42755;DHT22;28407;51.830;5.684;2024-01-15T02:55:50;3.40;90.00
42755;DHT22;28407;51.830;5.684;2024-01-15T02:57:51;3.40;90.00
42755;DHT22;28407;51.830;5.684;2024-01-15T02:59:54;3.50;90.00
42755;DHT22;28407;51.830;5.684;2024-01-15T03:01:55;3.50;90.00
42755;DHT22;28407;51.830;5.684;2024-01-15T03:03:56;3.50;90.00
42755;DHT22;28407;51.830;5.684;2024-01-15T03:05:59;3.50;90.00
42755;DHT22;28407;51.830;5.684;2024-01-15T03:08:00;3.50;90.00
42755;DHT22;28407;51.830;5.684;2024-01-15T03:10:04;3.50;90.00
42755;DHT22;28407;51.830;5.684;2024-01-15T03:12:05;3.50;90.00
42755;DHT22;28407;51.830;5.684;2024-01-15T03:14:06;3.50;90.00
42755;DHT22;28407;51.830;5.684;2024-01-15T03:16:07;3.50;89.90
42755;DHT22;28407;51.830;5.684;2024-01-15T03:18:08;3.50;90.00
42755;DHT22;28407;51.830;5.684;2024-01-15T03:20:09;3.50;90.00
42755;DHT22;28407;51.830;5.684;2024-01-15T03:22:12;3.50;90.00
42755;DHT22;28407;51.830;5.684;2024-01-15T03:24:13;3.50;90.00
42755;DHT22;28407;51.830;5.684;2024-01-15T03:26:14;3.50;90.00
42755;DHT22;28407;51.830;5.684;2024-01-15T03:28:14;3.50;90.00
42755;DHT22;28407;51.830;5.684;2024-01-15T03:30:16;3.50;89.90
42755;DHT22;28407;51.830;5.684;2024-01-15T03:32:19;3.50;89.90
42755;DHT22;28407;51.830;5.684;2024-01-15T03:34:20;3.50;89.90
42755;DHT22;28407;51.830;5.684;2024-01-15T03:36:20;3.50;89.80
42755;DHT22;28407;51.830;5.684;2024-01-15T03:38:26;3.50;89.80
42755;DHT22;28407;51.830;5.684;2024-01-15T03:40:30;3.50;89.80
42755;DHT22;28407;51.830;5.684;2024-01-15T03:42:31;3.50;89.80
42755;DHT22;28407;51.830;5.684;2024-01-15T03:44:34;3.50;89.70
42755;DHT22;28407;51.830;5.684;2024-01-15T03:46:36;3.50;89.80
42755;DHT22;28407;51.830;5.684;2024-01-15T03:48:40;3.50;89.80
42755;DHT22;28407;51.830;5.684;2024-01-15T03:50:40;3.50;89.80
42755;DHT22;28407;51.830;5.684;2024-01-15T03:52:41;3.50;89.80
42755;DHT22;28407;51.830;5.684;2024-01-15T03:54:42;3.50;89.80
42755;DHT22;28407;51.830;5.684;2024-01-15T03:56:42;3.50;89.80
42755;DHT22;28407;51.830;5.684;2024-01-15T03:58:43;3.50;89.80
42755;DHT22;28407;51.830;5.684;2024-01-15T04:00:44;3.50;89.80
42755;DHT22;28407;51.830;5.684;2024-01-15T04:02:44;3.50;89.80
42755;DHT22;28407;51.830;5.684;2024-01-15T04:04:45;3.50;89.80
42755;DHT22;28407;51.830;5.684;2024-01-15T04:06:46;3.50;89.80
42755;DHT22;28407;51.830;5.684;2024-01-15T04:08:50;3.50;89.80
42755;DHT22;28407;51.830;5.684;2024-01-15T04:10:50;3.40;89.70
42755;DHT22;28407;51.830;5.684;2024-01-15T04:12:51;3.50;89.80
42755;DHT22;28407;51.830;5.684;2024-01-15T04:14:52;3.40;89.70
42755;DHT22;28407;51.830;5.684;2024-01-15T04:16:52;3.40;89.70
42755;DHT22;28407;51.830;5.684;2024-01-15T04:18:56;3.40;89.70
42755;DHT22;28407;51.830;5.684;2024-01-15T04:20:57;3.40;89.70
42755;DHT22;28407;51.830;5.684;2024-01-15T04:22:57;3.40;89.70
42755;DHT22;28407;51.830;5.684;2024-01-15T04:25:01;3.40;89.70
42755;DHT22;28407;51.830;5.684;2024-01-15T04:27:02;3.40;89.60
42755;DHT22;28407;51.830;5.684;2024-01-15T04:29:02;3.40;89.70
42755;DHT22;28407;51.830;5.684;2024-01-15T04:31:03;3.40;89.60
42755;DHT22;28407;51.830;5.684;2024-01-15T04:33:04;3.40;89.60
42755;DHT22;28407;51.830;5.684;2024-01-15T04:35:05;3.40;89.60
42755;DHT22;28407;51.830;5.684;2024-01-15T04:37:06;3.40;89.60
42755;DHT22;28407;51.830;5.684;2024-01-15T04:39:06;3.40;89.60
42755;DHT22;28407;51.830;5.684;2024-01-15T04:41:16;3.40;89.60
42755;DHT22;28407;51.830;5.684;2024-01-15T04:43:17;3.40;89.60
42755;DHT22;28407;51.830;5.684;2024-01-15T04:45:20;3.40;89.60
42755;DHT22;28407;51.830;5.684;2024-01-15T04:47:23;3.40;89.60
42755;DHT22;28407;51.830;5.684;2024-01-15T04:49:23;3.50;89.70
42755;DHT22;28407;51.830;5.684;2024-01-15T04:51:27;3.40;89.60
42755;DHT22;28407;51.830;5.684;2024-01-15T04:53:28;3.40;89.60
42755;DHT22;28407;51.830;5.684;2024-01-15T04:55:28;3.40;89.60
42755;DHT22;28407;51.830;5.684;2024-01-15T04:57:29;3.40;89.70
42755;DHT22;28407;51.830;5.684;2024-01-15T04:59:30;3.40;89.70
42755;DHT22;28407;51.830;5.684;2024-01-15T05:01:33;3.30;89.70
42755;DHT22;28407;51.830;5.684;2024-01-15T05:03:34;3.40;89.70
42755;DHT22;28407;51.830;5.684;2024-01-15T05:05:35;3.40;89.70
42755;DHT22;28407;51.830;5.684;2024-01-15T05:07:36;3.30;89.60
42755;DHT22;28407;51.830;5.684;2024-01-15T05:09:37;3.30;89.60
42755;DHT22;28407;51.830;5.684;2024-01-15T05:11:37;3.30;89.60
42755;DHT22;28407;51.830;5.684;2024-01-15T05:13:38;3.30;89.70
42755;DHT22;28407;51.830;5.684;2024-01-15T05:15:41;3.30;89.80
42755;DHT22;28407;51.830;5.684;2024-01-15T05:17:45;3.30;89.80
42755;DHT22;28407;51.830;5.684;2024-01-15T05:19:45;3.30;89.80
42755;DHT22;28407;51.830;5.684;2024-01-15T05:21:48;3.30;89.80
42755;DHT22;28407;51.830;5.684;2024-01-15T05:23:49;3.30;89.70
42755;DHT22;28407;51.830;5.684;2024-01-15T05:25:50;3.30;89.70
42755;DHT22;28407;51.830;5.684;2024-01-15T05:27:51;3.30;89.70
42755;DHT22;28407;51.830;5.684;2024-01-15T05:29:51;3.30;89.70
42755;DHT22;28407;51.830;5.684;2024-01-15T05:31:52;3.30;89.70
42755;DHT22;28407;51.830;5.684;2024-01-15T05:33:53;3.30;89.80
42755;DHT22;28407;51.830;5.684;2024-01-15T05:35:54;3.30;89.80
42755;DHT22;28407;51.830;5.684;2024-01-15T05:37:55;3.30;89.80
42755;DHT22;28407;51.830;5.684;2024-01-15T05:39:55;3.30;89.80
42755;DHT22;28407;51.830;5.684;2024-01-15T05:41:56;3.30;89.80
42755;DHT22;28407;51.830;5.684;2024-01-15T05:43:57;3.30;89.80
42755;DHT22;28407;51.830;5.684;2024-01-15T05:45:57;3.30;89.70
42755;DHT22;28407;51.830;5.684;2024-01-15T05:47:58;3.30;89.70
42755;DHT22;28407;51.830;5.684;2024-01-15T05:50:00;3.30;89.70
42755;DHT22;28407;51.830;5.684;2024-01-15T05:52:00;3.30;89.70
42755;DHT22;28407;51.830;5.684;2024-01-15T05:54:04;3.40;89.70
42755;DHT22;28407;51.830;5.684;2024-01-15T05:56:05;3.30;89.70
42755;DHT22;28407;51.830;5.684;2024-01-15T05:58:08;3.30;89.60
42755;DHT22;28407;51.830;5.684;2024-01-15T06:00:12;3.30;89.70
42755;DHT22;28407;51.830;5.684;2024-01-15T06:02:13;3.30;89.70
42755;DHT22;28407;51.830;5.684;2024-01-15T06:04:14;3.30;89.70
42755;DHT22;28407;51.830;5.684;2024-01-15T06:06:14;3.30;89.80
42755;DHT22;28407;51.830;5.684;2024-01-15T06:08:15;3.20;89.80
42755;DHT22;28407;51.830;5.684;2024-01-15T06:10:16;3.20;89.80
42755;DHT22;28407;51.830;5.684;2024-01-15T06:12:16;3.30;89.90
42755;DHT22;28407;51.830;5.684;2024-01-15T06:14:20;3.30;89.90
42755;DHT22;28407;51.830;5.684;2024-01-15T06:16:20;3.30;89.80
42755;DHT22;28407;51.830;5.684;2024-01-15T06:18:22;3.30;89.90
42755;DHT22;28407;51.830;5.684;2024-01-15T06:20:22;3.30;89.80
42755;DHT22;28407;51.830;5.684;2024-01-15T06:22:26;3.30;89.80
42755;DHT22;28407;51.830;5.684;2024-01-15T06:24:29;3.30;89.90
42755;DHT22;28407;51.830;5.684;2024-01-15T06:26:32;3.30;90.20
42755;DHT22;28407;51.830;5.684;2024-01-15T06:28:33;3.30;90.00
42755;DHT22;28407;51.830;5.684;2024-01-15T06:30:34;3.30;89.80
42755;DHT22;28407;51.830;5.684;2024-01-15T06:32:35;3.30;89.80
42755;DHT22;28407;51.830;5.684;2024-01-15T06:34:36;3.30;89.80
42755;DHT22;28407;51.830;5.684;2024-01-15T06:36:37;3.30;89.80
42755;DHT22;28407;51.830;5.684;2024-01-15T06:38:37;3.30;89.80
42755;DHT22;28407;51.830;5.684;2024-01-15T06:40:40;3.30;89.80
42755;DHT22;28407;51.830;5.684;2024-01-15T06:42:45;3.30;89.80
42755;DHT22;28407;51.830;5.684;2024-01-15T06:44:46;3.30;89.80
42755;DHT22;28407;51.830;5.684;2024-01-15T06:46:47;3.30;89.80
42755;DHT22;28407;51.830;5.684;2024-01-15T06:48:52;3.30;89.80
42755;DHT22;28407;51.830;5.684;2024-01-15T06:50:52;3.30;89.80
42755;DHT22;28407;51.830;5.684;2024-01-15T06:52:53;3.30;89.80
42755;DHT22;28407;51.830;5.684;2024-01-15T06:54:54;3.30;89.80
42755;DHT22;28407;51.830;5.684;2024-01-15T06:56:54;3.30;89.80
42755;DHT22;28407;51.830;5.684;2024-01-15T06:58:55;3.30;89.70
42755;DHT22;28407;51.830;5.684;2024-01-15T07:00:56;3.30;89.70
42755;DHT22;28407;51.830;5.684;2024-01-15T07:02:57;3.30;89.70
42755;DHT22;28407;51.830;5.684;2024-01-15T07:05:00;3.30;89.70
42755;DHT22;28407;51.830;5.684;2024-01-15T07:07:01;3.30;89.80
42755;DHT22;28407;51.830;5.684;2024-01-15T07:09:02;3.30;89.90
42755;DHT22;28407;51.830;5.684;2024-01-15T07:11:03;3.30;89.90
42755;DHT22;28407;51.830;5.684;2024-01-15T07:13:04;3.30;89.90
42755;DHT22;28407;51.830;5.684;2024-01-15T07:15:06;3.30;89.90
42755;DHT22;28407;51.830;5.684;2024-01-15T07:17:08;3.30;89.90
42755;DHT22;28407;51.830;5.684;2024-01-15T07:19:09;3.30;90.00
42755;DHT22;28407;51.830;5.684;2024-01-15T07:21:12;3.30;89.90
42755;DHT22;28407;51.830;5.684;2024-01-15T07:23:13;3.30;89.90
42755;DHT22;28407;51.830;5.684;2024-01-15T07:25:15;3.30;89.90
42755;DHT22;28407;51.830;5.684;2024-01-15T07:27:15;3.30;89.90
42755;DHT22;28407;51.830;5.684;2024-01-15T07:29:16;3.30;89.80
42755;DHT22;28407;51.830;5.684;2024-01-15T07:31:17;3.30;89.80
42755;DHT22;28407;51.830;5.684;2024-01-15T07:33:18;3.30;89.80
42755;DHT22;28407;51.830;5.684;2024-01-15T07:35:18;3.30;89.80
42755;DHT22;28407;51.830;5.684;2024-01-15T07:37:22;3.30;89.80
42755;DHT22;28407;51.830;5.684;2024-01-15T07:39:23;3.30;89.80
42755;DHT22;28407;51.830;5.684;2024-01-15T07:41:25;3.30;89.80
42755;DHT22;28407;51.830;5.684;2024-01-15T07:43:26;3.20;89.90
42755;DHT22;28407;51.830;5.684;2024-01-15T07:45:28;3.30;90.00
42755;DHT22;28407;51.830;5.684;2024-01-15T07:47:28;3.20;89.90
42755;DHT22;28407;51.830;5.684;2024-01-15T07:49:35;3.20;89.90
42755;DHT22;28407;51.830;5.684;2024-01-15T07:51:36;3.30;90.00
42755;DHT22;28407;51.830;5.684;2024-01-15T07:53:40;3.30;89.90
42755;DHT22;28407;51.830;5.684;2024-01-15T07:55:41;3.30;90.00
42755;DHT22;28407;51.830;5.684;2024-01-15T07:57:42;3.30;89.90
42755;DHT22;28407;51.830;5.684;2024-01-15T07:59:43;3.30;89.80
42755;DHT22;28407;51.830;5.684;2024-01-15T08:01:43;3.30;89.80
42755;DHT22;28407;51.830;5.684;2024-01-15T08:03:44;3.40;89.80
42755;DHT22;28407;51.830;5.684;2024-01-15T08:05:44;3.30;89.70
42755;DHT22;28407;51.830;5.684;2024-01-15T08:07:45;3.40;89.70
42755;DHT22;28407;51.830;5.684;2024-01-15T08:09:46;3.30;89.60
42755;DHT22;28407;51.830;5.684;2024-01-15T08:11:48;3.30;89.60
42755;DHT22;28407;51.830;5.684;2024-01-15T08:13:49;3.30;89.70
42755;DHT22;28407;51.830;5.684;2024-01-15T08:15:50;3.30;89.80
42755;DHT22;28407;51.830;5.684;2024-01-15T08:17:51;3.30;89.90
42755;DHT22;28407;51.830;5.684;2024-01-15T08:19:51;3.30;89.90
42755;DHT22;28407;51.830;5.684;2024-01-15T08:21:52;3.40;89.80
42755;DHT22;28407;51.830;5.684;2024-01-15T08:23:53;3.30;89.80
42755;DHT22;28407;51.830;5.684;2024-01-15T08:25:54;3.40;89.70
42755;DHT22;28407;51.830;5.684;2024-01-15T08:27:55;3.30;89.70
42755;DHT22;28407;51.830;5.684;2024-01-15T08:29:56;3.30;89.70
42755;DHT22;28407;51.830;5.684;2024-01-15T08:31:57;3.30;89.80
42755;DHT22;28407;51.830;5.684;2024-01-15T08:33:57;3.30;89.80
42755;DHT22;28407;51.830;5.684;2024-01-15T08:35:59;3.30;89.80
42755;DHT22;28407;51.830;5.684;2024-01-15T08:38:00;3.30;89.80
42755;DHT22;28407;51.830;5.684;2024-01-15T08:40:00;3.40;89.80
42755;DHT22;28407;51.830;5.684;2024-01-15T08:42:04;3.40;89.90
42755;DHT22;28407;51.830;5.684;2024-01-15T08:44:05;3.40;89.80
42755;DHT22;28407;51.830;5.684;2024-01-15T08:46:06;3.40;89.80
42755;DHT22;28407;51.830;5.684;2024-01-15T08:48:07;3.40;89.80
42755;DHT22;28407;51.830;5.684;2024-01-15T08:50:08;3.40;89.80
42755;DHT22;28407;51.830;5.684;2024-01-15T08:52:10;3.40;89.70
42755;DHT22;28407;51.830;5.684;2024-01-15T08:54:11;3.40;89.70
42755;DHT22;28407;51.830;5.684;2024-01-15T08:56:12;3.40;89.70
42755;DHT22;28407;51.830;5.684;2024-01-15T08:58:13;3.40;89.70
42755;DHT22;28407;51.830;5.684;2024-01-15T09:00:17;3.40;89.70
42755;DHT22;28407;51.830;5.684;2024-01-15T09:02:18;3.30;89.70
42755;DHT22;28407;51.830;5.684;2024-01-15T09:04:18;3.40;89.80
42755;DHT22;28407;51.830;5.684;2024-01-15T09:06:20;3.40;89.80
42755;DHT22;28407;51.830;5.684;2024-01-15T09:08:21;3.30;89.80
42755;DHT22;28407;51.830;5.684;2024-01-15T09:10:21;3.40;90.10
42755;DHT22;28407;51.830;5.684;2024-01-15T09:12:22;3.40;89.70
42755;DHT22;28407;51.830;5.684;2024-01-15T09:14:22;3.40;89.80
42755;DHT22;28407;51.830;5.684;2024-01-15T09:16:24;3.30;89.70
42755;DHT22;28407;51.830;5.684;2024-01-15T09:18:25;3.40;89.80
42755;DHT22;28407;51.830;5.684;2024-01-15T09:20:25;3.30;89.80
42755;DHT22;28407;51.830;5.684;2024-01-15T09:22:27;3.30;89.80
42755;DHT22;28407;51.830;5.684;2024-01-15T09:24:28;3.30;89.80
42755;DHT22;28407;51.830;5.684;2024-01-15T09:26:29;3.40;89.80
42755;DHT22;28407;51.830;5.684;2024-01-15T09:28:29;3.40;89.80
42755;DHT22;28407;51.830;5.684;2024-01-15T09:30:30;3.40;89.80
42755;DHT22;28407;51.830;5.684;2024-01-15T09:32:31;3.40;89.70
42755;DHT22;28407;51.830;5.684;2024-01-15T09:34:33;3.40;89.70
42755;DHT22;28407;51.830;5.684;2024-01-15T09:36:39;3.40;89.80
42755;DHT22;28407;51.830;5.684;2024-01-15T09:38:40;3.40;89.80
42755;DHT22;28407;51.830;5.684;2024-01-15T09:40:42;3.40;89.80
42755;DHT22;28407;51.830;5.684;2024-01-15T09:42:43;3.40;89.80
42755;DHT22;28407;51.830;5.684;2024-01-15T09:44:45;3.40;89.60
42755;DHT22;28407;51.830;5.684;2024-01-15T09:46:49;3.40;89.70
42755;DHT22;28407;51.830;5.684;2024-01-15T09:48:50;3.40;89.70
42755;DHT22;28407;51.830;5.684;2024-01-15T09:50:51;3.50;89.70
42755;DHT22;28407;51.830;5.684;2024-01-15T09:52:52;3.40;89.60
42755;DHT22;28407;51.830;5.684;2024-01-15T09:54:53;3.50;89.60
42755;DHT22;28407;51.830;5.684;2024-01-15T09:56:57;3.50;89.60
42755;DHT22;28407;51.830;5.684;2024-01-15T09:58:57;3.50;89.60
42755;DHT22;28407;51.830;5.684;2024-01-15T10:00:58;3.50;89.60
42755;DHT22;28407;51.830;5.684;2024-01-15T10:03:00;3.50;89.60
42755;DHT22;28407;51.830;5.684;2024-01-15T10:05:00;3.60;89.60
42755;DHT22;28407;51.830;5.684;2024-01-15T10:07:01;3.60;89.60
42755;DHT22;28407;51.830;5.684;2024-01-15T10:09:03;3.60;89.60
42755;DHT22;28407;51.830;5.684;2024-01-15T10:11:04;3.60;89.50
42755;DHT22;28407;51.830;5.684;2024-01-15T10:13:05;3.60;89.40
42755;DHT22;28407;51.830;5.684;2024-01-15T10:15:10;3.60;89.50
42755;DHT22;28407;51.830;5.684;2024-01-15T10:17:12;3.60;89.40
42755;DHT22;28407;51.830;5.684;2024-01-15T10:19:14;3.60;89.40
42755;DHT22;28407;51.830;5.684;2024-01-15T10:21:15;3.60;89.40
42755;DHT22;28407;51.830;5.684;2024-01-15T10:23:16;3.60;89.50
42755;DHT22;28407;51.830;5.684;2024-01-15T10:25:16;3.60;89.60
42755;DHT22;28407;51.830;5.684;2024-01-15T10:27:22;3.60;89.40
42755;DHT22;28407;51.830;5.684;2024-01-15T10:29:24;3.60;89.40
42755;DHT22;28407;51.830;5.684;2024-01-15T10:31:25;3.60;89.40
42755;DHT22;28407;51.830;5.684;2024-01-15T10:33:26;3.60;89.40
42755;DHT22;28407;51.830;5.684;2024-01-15T10:35:27;3.60;89.50
42755;DHT22;28407;51.830;5.684;2024-01-15T10:37:28;3.60;89.60
42755;DHT22;28407;51.830;5.684;2024-01-15T10:39:29;3.60;89.60
42755;DHT22;28407;51.830;5.684;2024-01-15T10:41:30;3.50;89.50
42755;DHT22;28407;51.830;5.684;2024-01-15T10:43:31;3.50;89.50
42755;DHT22;28407;51.830;5.684;2024-01-15T10:45:31;3.50;89.60
42755;DHT22;28407;51.830;5.684;2024-01-15T10:47:32;3.60;89.60
42755;DHT22;28407;51.830;5.684;2024-01-15T10:49:36;3.60;89.60
42755;DHT22;28407;51.830;5.684;2024-01-15T10:51:37;3.60;89.60
42755;DHT22;28407;51.830;5.684;2024-01-15T10:53:40;3.60;89.60
42755;DHT22;28407;51.830;5.684;2024-01-15T10:55:42;3.60;89.60
42755;DHT22;28407;51.830;5.684;2024-01-15T10:57:43;3.60;89.50
42755;DHT22;28407;51.830;5.684;2024-01-15T10:59:45;3.60;89.50
42755;DHT22;28407;51.830;5.684;2024-01-15T11:01:46;3.60;89.50
42755;DHT22;28407;51.830;5.684;2024-01-15T11:03:47;3.60;89.50
42755;DHT22;28407;51.830;5.684;2024-01-15T11:05:50;3.60;89.50
42755;DHT22;28407;51.830;5.684;2024-01-15T11:07:56;3.60;89.60
42755;DHT22;28407;51.830;5.684;2024-01-15T11:09:57;3.60;89.50
42755;DHT22;28407;51.830;5.684;2024-01-15T11:12:07;3.70;89.60
42755;DHT22;28407;51.830;5.684;2024-01-15T11:14:11;3.70;89.60
42755;DHT22;28407;51.830;5.684;2024-01-15T11:16:13;3.70;89.40
42755;DHT22;28407;51.830;5.684;2024-01-15T11:18:13;3.70;89.30
42755;DHT22;28407;51.830;5.684;2024-01-15T11:20:14;3.70;89.40
42755;DHT22;28407;51.830;5.684;2024-01-15T11:24:35;3.70;89.30
42755;DHT22;28407;51.830;5.684;2024-01-15T11:26:45;3.80;89.30
42755;DHT22;28407;51.830;5.684;2024-01-15T11:28:46;3.70;89.30
42755;DHT22;28407;51.830;5.684;2024-01-15T11:30:48;3.70;89.40
42755;DHT22;28407;51.830;5.684;2024-01-15T11:32:49;3.70;89.30
42755;DHT22;28407;51.830;5.684;2024-01-15T11:38:54;3.80;89.40
42755;DHT22;28407;51.830;5.684;2024-01-15T11:40:54;3.80;89.40
42755;DHT22;28407;51.830;5.684;2024-01-15T11:42:55;3.80;89.30
42755;DHT22;28407;51.830;5.684;2024-01-15T11:44:56;3.80;89.30
42755;DHT22;28407;51.830;5.684;2024-01-15T11:47:06;3.80;89.30
42755;DHT22;28407;51.830;5.684;2024-01-15T11:49:07;3.80;89.30
42755;DHT22;28407;51.830;5.684;2024-01-15T11:51:11;3.80;89.20
42755;DHT22;28407;51.830;5.684;2024-01-15T11:58:07;3.80;89.20
42755;DHT22;28407;51.830;5.684;2024-01-15T11:59:48;3.80;89.20
42755;DHT22;28407;51.830;5.684;2024-01-15T12:01:49;3.80;89.20
42755;DHT22;28407;51.830;5.684;2024-01-15T12:03:50;3.80;89.20
42755;DHT22;28407;51.830;5.684;2024-01-15T12:05:53;3.80;89.30
42755;DHT22;28407;51.830;5.684;2024-01-15T12:07:54;3.70;89.30
42755;DHT22;28407;51.830;5.684;2024-01-15T12:09:54;3.80;89.50
42755;DHT22;28407;51.830;5.684;2024-01-15T12:11:57;3.70;89.40
42755;DHT22;28407;51.830;5.684;2024-01-15T12:14:05;3.70;89.40
42755;DHT22;28407;51.830;5.684;2024-01-15T12:16:06;3.80;89.50
42755;DHT22;28407;51.830;5.684;2024-01-15T12:18:07;3.80;89.50
42755;DHT22;28407;51.830;5.684;2024-01-15T12:20:08;3.70;89.40
42755;DHT22;28407;51.830;5.684;2024-01-15T12:22:09;3.80;89.50
42755;DHT22;28407;51.830;5.684;2024-01-15T12:24:09;3.80;89.50
42755;DHT22;28407;51.830;5.684;2024-01-15T12:26:10;3.80;89.50
42755;DHT22;28407;51.830;5.684;2024-01-15T12:28:11;3.80;89.50
42755;DHT22;28407;51.830;5.684;2024-01-15T12:30:12;3.80;89.50
42755;DHT22;28407;51.830;5.684;2024-01-15T12:32:12;3.80;89.50
42755;DHT22;28407;51.830;5.684;2024-01-15T12:34:13;3.70;89.40
42755;DHT22;28407;51.830;5.684;2024-01-15T12:36:14;3.80;89.50
42755;DHT22;28407;51.830;5.684;2024-01-15T12:38:14;3.80;89.50
42755;DHT22;28407;51.830;5.684;2024-01-15T12:40:18;3.70;89.40
42755;DHT22;28407;51.830;5.684;2024-01-15T12:42:19;3.70;89.40
42755;DHT22;28407;51.830;5.684;2024-01-15T12:44:19;3.70;89.80
42755;DHT22;28407;51.830;5.684;2024-01-15T12:46:20;3.70;89.50
42755;DHT22;28407;51.830;5.684;2024-01-15T12:48:20;3.70;89.50
42755;DHT22;28407;51.830;5.684;2024-01-15T12:50:23;3.80;89.50
42755;DHT22;28407;51.830;5.684;2024-01-15T12:52:24;3.80;89.50
42755;DHT22;28407;51.830;5.684;2024-01-15T12:54:26;3.80;89.50
42755;DHT22;28407;51.830;5.684;2024-01-15T12:56:27;3.80;89.50
42755;DHT22;28407;51.830;5.684;2024-01-15T12:58:28;3.80;89.60
42755;DHT22;28407;51.830;5.684;2024-01-15T13:00:29;3.90;89.40
42755;DHT22;28407;51.830;5.684;2024-01-15T13:02:29;3.90;89.20
42755;DHT22;28407;51.830;5.684;2024-01-15T13:04:30;3.90;89.20
42755;DHT22;28407;51.830;5.684;2024-01-15T13:06:30;4.00;89.30
42755;DHT22;28407;51.830;5.684;2024-01-15T13:08:31;4.00;89.10
42755;DHT22;28407;51.830;5.684;2024-01-15T13:10:32;4.00;88.90